sensor_id;sensor_type;location;lat;lon;timestamp;P1;durP1;ratioP1;P2;durP2;ratioP2
64375;SDS011;50700;55.416;12.952;2023-02-03T00:01:31;0.80;;;0.55;;
64375;SDS011;50700;55.416;12.952;2023-02-03T00:03:57;1.80;;;0.88;;
64375;SDS011;50700;55.416;12.952;2023-02-03T00:06:23;1.65;;;0.70;;
64375;SDS011;50700;55.416;12.952;2023-02-03T00:08:51;1.63;;;0.93;;
64375;SDS011;50700;55.416;12.952;2023-02-03T00:11:18;2.03;;;0.95;;
64375;SDS011;50700;55.416;12.952;2023-02-03T00:13:44;1.42;;;0.70;;
64375;SDS011;50700;55.416;12.952;2023-02-03T00:16:11;3.05;;;0.80;;
64375;SDS011;50700;55.416;12.952;2023-02-03T00:18:37;5.45;;;1.52;;
64375;SDS011;50700;55.416;12.952;2023-02-03T00:21:03;4.00;;;1.00;;
64375;SDS011;50700;55.416;12.952;2023-02-03T00:23:30;2.40;;;1.05;;
64375;SDS011;50700;55.416;12.952;2023-02-03T00:25:57;1.00;;;0.82;;
64375;SDS011;50700;55.416;12.952;2023-02-03T00:28:23;2.22;;;1.23;;
64375;SDS011;50700;55.416;12.952;2023-02-03T00:30:52;6.90;;;1.10;;
64375;SDS011;50700;55.416;12.952;2023-02-03T00:33:18;2.17;;;1.20;;
64375;SDS011;50700;55.416;12.952;2023-02-03T00:35:44;1.48;;;0.70;;
64375;SDS011;50700;55.416;12.952;2023-02-03T00:38:10;3.85;;;1.10;;
64375;SDS011;50700;55.416;12.952;2023-02-03T00:40:37;3.35;;;1.05;;
64375;SDS011;50700;55.416;12.952;2023-02-03T00:43:03;2.15;;;1.10;;
64375;SDS011;50700;55.416;12.952;2023-02-03T00:45:29;1.98;;;1.25;;
64375;SDS011;50700;55.416;12.952;2023-02-03T00:47:55;0.88;;;0.85;;
64375;SDS011;50700;55.416;12.952;2023-02-03T00:50:21;2.20;;;1.15;;
64375;SDS011;50700;55.416;12.952;2023-02-03T00:52:47;1.20;;;0.85;;
64375;SDS011;50700;55.416;12.952;2023-02-03T00:55:14;3.22;;;1.00;;
64375;SDS011;50700;55.416;12.952;2023-02-03T00:57:40;1.52;;;1.10;;
64375;SDS011;50700;55.416;12.952;2023-02-03T01:00:06;2.08;;;1.10;;
64375;SDS011;50700;55.416;12.952;2023-02-03T01:02:33;1.67;;;0.90;;
64375;SDS011;50700;55.416;12.952;2023-02-03T01:04:59;1.65;;;1.05;;
64375;SDS011;50700;55.416;12.952;2023-02-03T01:07:25;1.20;;;1.10;;
64375;SDS011;50700;55.416;12.952;2023-02-03T01:09:51;4.78;;;1.42;;
64375;SDS011;50700;55.416;12.952;2023-02-03T01:12:17;4.32;;;1.17;;
64375;SDS011;50700;55.416;12.952;2023-02-03T01:14:43;1.98;;;0.90;;
64375;SDS011;50700;55.416;12.952;2023-02-03T01:17:10;2.15;;;0.95;;
64375;SDS011;50700;55.416;12.952;2023-02-03T01:19:36;1.13;;;0.60;;
64375;SDS011;50700;55.416;12.952;2023-02-03T01:22:02;2.95;;;0.77;;
64375;SDS011;50700;55.416;12.952;2023-02-03T01:24:29;2.78;;;0.98;;
64375;SDS011;50700;55.416;12.952;2023-02-03T01:26:55;3.95;;;0.70;;
64375;SDS011;50700;55.416;12.952;2023-02-03T01:29:21;1.55;;;0.90;;
64375;SDS011;50700;55.416;12.952;2023-02-03T01:31:48;6.65;;;1.52;;
64375;SDS011;50700;55.416;12.952;2023-02-03T01:34:14;1.05;;;0.50;;
64375;SDS011;50700;55.416;12.952;2023-02-03T01:36:41;1.73;;;0.95;;
64375;SDS011;50700;55.416;12.952;2023-02-03T01:39:07;1.08;;;1.00;;
64375;SDS011;50700;55.416;12.952;2023-02-03T01:41:34;5.13;;;1.17;;
64375;SDS011;50700;55.416;12.952;2023-02-03T01:44:01;5.57;;;1.20;;
64375;SDS011;50700;55.416;12.952;2023-02-03T01:48:55;3.05;;;1.95;;
64375;SDS011;50700;55.416;12.952;2023-02-03T01:51:23;4.18;;;1.20;;
64375;SDS011;50700;55.416;12.952;2023-02-03T01:53:49;3.78;;;1.00;;
64375;SDS011;50700;55.416;12.952;2023-02-03T01:56:16;7.03;;;1.20;;
64375;SDS011;50700;55.416;12.952;2023-02-03T01:58:42;8.52;;;1.30;;
64375;SDS011;50700;55.416;12.952;2023-02-03T02:01:10;3.75;;;1.40;;
64375;SDS011;50700;55.416;12.952;2023-02-03T02:03:40;2.03;;;1.02;;
64375;SDS011;50700;55.416;12.952;2023-02-03T02:06:08;3.35;;;1.20;;
64375;SDS011;50700;55.416;12.952;2023-02-03T02:08:35;5.10;;;1.45;;
64375;SDS011;50700;55.416;12.952;2023-02-03T02:11:02;4.15;;;1.40;;
64375;SDS011;50700;55.416;12.952;2023-02-03T02:13:29;3.28;;;1.10;;
64375;SDS011;50700;55.416;12.952;2023-02-03T02:26:02;0.95;;;0.70;;
64375;SDS011;50700;55.416;12.952;2023-02-03T02:28:52;5.18;;;0.90;;
64375;SDS011;50700;55.416;12.952;2023-02-03T02:34:22;1.45;;;1.17;;
64375;SDS011;50700;55.416;12.952;2023-02-03T02:39:23;2.05;;;1.23;;
64375;SDS011;50700;55.416;12.952;2023-02-03T02:41:55;4.88;;;0.73;;
64375;SDS011;50700;55.416;12.952;2023-02-03T02:44:24;2.28;;;1.00;;
64375;SDS011;50700;55.416;12.952;2023-02-03T02:46:52;1.55;;;0.77;;
64375;SDS011;50700;55.416;12.952;2023-02-03T02:49:41;3.17;;;0.75;;
64375;SDS011;50700;55.416;12.952;2023-02-03T02:52:05;3.42;;;1.25;;
64375;SDS011;50700;55.416;12.952;2023-02-03T02:54:33;1.10;;;0.80;;
64375;SDS011;50700;55.416;12.952;2023-02-03T02:57:02;3.63;;;1.13;;
64375;SDS011;50700;55.416;12.952;2023-02-03T02:59:28;4.07;;;1.33;;
64375;SDS011;50700;55.416;12.952;2023-02-03T03:01:55;1.92;;;1.00;;
64375;SDS011;50700;55.416;12.952;2023-02-03T03:04:22;1.05;;;0.73;;
64375;SDS011;50700;55.416;12.952;2023-02-03T03:06:51;4.57;;;1.15;;
64375;SDS011;50700;55.416;12.952;2023-02-03T03:09:22;2.95;;;1.17;;
64375;SDS011;50700;55.416;12.952;2023-02-03T03:11:50;1.05;;;0.85;;
64375;SDS011;50700;55.416;12.952;2023-02-03T03:14:18;2.60;;;0.68;;
64375;SDS011;50700;55.416;12.952;2023-02-03T03:16:47;1.42;;;0.80;;
64375;SDS011;50700;55.416;12.952;2023-02-03T03:19:15;2.75;;;0.90;;
64375;SDS011;50700;55.416;12.952;2023-02-03T03:21:47;0.90;;;0.70;;
64375;SDS011;50700;55.416;12.952;2023-02-03T03:24:15;2.08;;;0.88;;
64375;SDS011;50700;55.416;12.952;2023-02-03T03:26:45;0.80;;;0.60;;
64375;SDS011;50700;55.416;12.952;2023-02-03T03:29:27;1.63;;;0.63;;
64375;SDS011;50700;55.416;12.952;2023-02-03T03:31:55;2.97;;;0.60;;
64375;SDS011;50700;55.416;12.952;2023-02-03T03:34:21;4.70;;;0.73;;
64375;SDS011;50700;55.416;12.952;2023-02-03T03:37:00;2.55;;;0.88;;
64375;SDS011;50700;55.416;12.952;2023-02-03T03:39:31;3.03;;;1.00;;
64375;SDS011;50700;55.416;12.952;2023-02-03T03:42:02;1.42;;;0.70;;
64375;SDS011;50700;55.416;12.952;2023-02-03T03:44:32;5.30;;;1.02;;
64375;SDS011;50700;55.416;12.952;2023-02-03T03:47:14;5.28;;;1.00;;
64375;SDS011;50700;55.416;12.952;2023-02-03T03:49:42;0.75;;;0.68;;
64375;SDS011;50700;55.416;12.952;2023-02-03T03:52:10;1.05;;;0.90;;
64375;SDS011;50700;55.416;12.952;2023-02-03T03:54:40;1.13;;;0.60;;
64375;SDS011;50700;55.416;12.952;2023-02-03T03:57:29;4.13;;;0.80;;
64375;SDS011;50700;55.416;12.952;2023-02-03T03:59:53;1.98;;;0.60;;
64375;SDS011;50700;55.416;12.952;2023-02-03T04:02:20;0.80;;;0.70;;
64375;SDS011;50700;55.416;12.952;2023-02-03T04:04:46;5.97;;;0.90;;
64375;SDS011;50700;55.416;12.952;2023-02-03T04:07:13;2.97;;;1.33;;
64375;SDS011;50700;55.416;12.952;2023-02-03T04:09:40;2.08;;;0.98;;
64375;SDS011;50700;55.416;12.952;2023-02-03T04:12:12;2.15;;;1.02;;
64375;SDS011;50700;55.416;12.952;2023-02-03T04:14:40;0.80;;;0.80;;
64375;SDS011;50700;55.416;12.952;2023-02-03T04:17:07;1.40;;;0.73;;
64375;SDS011;50700;55.416;12.952;2023-02-03T04:19:33;4.88;;;1.13;;
64375;SDS011;50700;55.416;12.952;2023-02-03T04:21:59;4.15;;;1.27;;
64375;SDS011;50700;55.416;12.952;2023-02-03T04:24:25;5.28;;;1.10;;
64375;SDS011;50700;55.416;12.952;2023-02-03T04:26:51;4.13;;;0.93;;
64375;SDS011;50700;55.416;12.952;2023-02-03T04:29:18;2.78;;;0.80;;
64375;SDS011;50700;55.416;12.952;2023-02-03T04:31:44;1.60;;;0.85;;
64375;SDS011;50700;55.416;12.952;2023-02-03T04:34:10;2.55;;;0.82;;
64375;SDS011;50700;55.416;12.952;2023-02-03T04:36:36;3.05;;;1.10;;
64375;SDS011;50700;55.416;12.952;2023-02-03T04:39:02;1.48;;;0.82;;
64375;SDS011;50700;55.416;12.952;2023-02-03T04:41:28;3.03;;;0.80;;
64375;SDS011;50700;55.416;12.952;2023-02-03T04:43:55;2.70;;;0.90;;
64375;SDS011;50700;55.416;12.952;2023-02-03T04:46:21;3.17;;;0.88;;
64375;SDS011;50700;55.416;12.952;2023-02-03T04:48:47;2.83;;;1.25;;
64375;SDS011;50700;55.416;12.952;2023-02-03T04:51:13;2.88;;;1.02;;
64375;SDS011;50700;55.416;12.952;2023-02-03T04:53:39;1.63;;;1.00;;
64375;SDS011;50700;55.416;12.952;2023-02-03T04:56:06;3.58;;;1.13;;
64375;SDS011;50700;55.416;12.952;2023-02-03T04:58:32;4.93;;;1.10;;
64375;SDS011;50700;55.416;12.952;2023-02-03T05:01:04;1.63;;;0.90;;
64375;SDS011;50700;55.416;12.952;2023-02-03T05:03:32;1.92;;;0.90;;
64375;SDS011;50700;55.416;12.952;2023-02-03T05:05:58;6.20;;;0.85;;
64375;SDS011;50700;55.416;12.952;2023-02-03T05:08:24;3.08;;;0.88;;
64375;SDS011;50700;55.416;12.952;2023-02-03T05:10:50;5.38;;;1.10;;
64375;SDS011;50700;55.416;12.952;2023-02-03T05:13:16;6.63;;;1.02;;
64375;SDS011;50700;55.416;12.952;2023-02-03T05:15:43;1.50;;;0.95;;
64375;SDS011;50700;55.416;12.952;2023-02-03T05:18:09;1.52;;;1.20;;
64375;SDS011;50700;55.416;12.952;2023-02-03T05:20:35;2.67;;;1.10;;
64375;SDS011;50700;55.416;12.952;2023-02-03T05:23:01;2.80;;;1.15;;
64375;SDS011;50700;55.416;12.952;2023-02-03T05:25:27;4.05;;;1.02;;
64375;SDS011;50700;55.416;12.952;2023-02-03T05:27:53;7.13;;;1.08;;
64375;SDS011;50700;55.416;12.952;2023-02-03T05:30:19;4.18;;;1.60;;
64375;SDS011;50700;55.416;12.952;2023-02-03T05:32:47;1.73;;;0.90;;
64375;SDS011;50700;55.416;12.952;2023-02-03T05:35:13;6.35;;;1.20;;
64375;SDS011;50700;55.416;12.952;2023-02-03T05:37:41;6.13;;;1.30;;
64375;SDS011;50700;55.416;12.952;2023-02-03T05:40:08;2.00;;;1.35;;
64375;SDS011;50700;55.416;12.952;2023-02-03T05:42:53;2.30;;;1.30;;
64375;SDS011;50700;55.416;12.952;2023-02-03T05:45:19;3.58;;;1.42;;
64375;SDS011;50700;55.416;12.952;2023-02-03T05:47:45;7.05;;;1.92;;
64375;SDS011;50700;55.416;12.952;2023-02-03T05:50:11;4.28;;;2.05;;
64375;SDS011;50700;55.416;12.952;2023-02-03T05:52:38;3.22;;;1.65;;
64375;SDS011;50700;55.416;12.952;2023-02-03T05:55:04;3.40;;;1.30;;
64375;SDS011;50700;55.416;12.952;2023-02-03T05:57:30;2.10;;;1.23;;
64375;SDS011;50700;55.416;12.952;2023-02-03T05:59:56;8.23;;;1.77;;
64375;SDS011;50700;55.416;12.952;2023-02-03T06:02:22;4.70;;;1.70;;
64375;SDS011;50700;55.416;12.952;2023-02-03T06:04:48;7.85;;;2.10;;
64375;SDS011;50700;55.416;12.952;2023-02-03T06:07:14;3.20;;;1.85;;
64375;SDS011;50700;55.416;12.952;2023-02-03T06:09:41;9.18;;;1.85;;
64375;SDS011;50700;55.416;12.952;2023-02-03T06:12:07;7.95;;;1.85;;
64375;SDS011;50700;55.416;12.952;2023-02-03T06:14:33;5.95;;;1.50;;
64375;SDS011;50700;55.416;12.952;2023-02-03T06:16:59;3.60;;;1.73;;
64375;SDS011;50700;55.416;12.952;2023-02-03T06:19:25;7.03;;;2.03;;
64375;SDS011;50700;55.416;12.952;2023-02-03T06:21:52;7.32;;;2.08;;
64375;SDS011;50700;55.416;12.952;2023-02-03T06:24:18;17.05;;;2.85;;
64375;SDS011;50700;55.416;12.952;2023-02-03T06:26:44;6.78;;;1.80;;
64375;SDS011;50700;55.416;12.952;2023-02-03T06:29:11;11.23;;;2.55;;
64375;SDS011;50700;55.416;12.952;2023-02-03T06:31:37;10.18;;;2.25;;
64375;SDS011;50700;55.416;12.952;2023-02-03T06:34:03;7.72;;;2.10;;
64375;SDS011;50700;55.416;12.952;2023-02-03T06:36:29;7.05;;;2.00;;
64375;SDS011;50700;55.416;12.952;2023-02-03T06:38:55;10.32;;;2.65;;
64375;SDS011;50700;55.416;12.952;2023-02-03T06:41:23;8.85;;;2.25;;
64375;SDS011;50700;55.416;12.952;2023-02-03T06:43:52;10.27;;;2.00;;
64375;SDS011;50700;55.416;12.952;2023-02-03T06:46:18;10.38;;;2.30;;
64375;SDS011;50700;55.416;12.952;2023-02-03T06:48:45;10.02;;;2.20;;
64375;SDS011;50700;55.416;12.952;2023-02-03T06:51:11;8.35;;;1.70;;
64375;SDS011;50700;55.416;12.952;2023-02-03T06:53:37;10.43;;;2.10;;
64375;SDS011;50700;55.416;12.952;2023-02-03T06:56:03;8.95;;;2.05;;
64375;SDS011;50700;55.416;12.952;2023-02-03T06:58:29;7.65;;;1.85;;
64375;SDS011;50700;55.416;12.952;2023-02-03T07:00:56;6.57;;;1.30;;
64375;SDS011;50700;55.416;12.952;2023-02-03T07:03:22;13.63;;;1.92;;
64375;SDS011;50700;55.416;12.952;2023-02-03T07:05:48;10.77;;;1.88;;
64375;SDS011;50700;55.416;12.952;2023-02-03T07:08:14;2.90;;;1.45;;
64375;SDS011;50700;55.416;12.952;2023-02-03T07:10:40;8.43;;;1.98;;
64375;SDS011;50700;55.416;12.952;2023-02-03T07:13:07;6.95;;;1.80;;
64375;SDS011;50700;55.416;12.952;2023-02-03T07:15:33;7.10;;;1.50;;
64375;SDS011;50700;55.416;12.952;2023-02-03T07:17:59;6.07;;;1.30;;
64375;SDS011;50700;55.416;12.952;2023-02-03T07:20:26;2.70;;;1.35;;
64375;SDS011;50700;55.416;12.952;2023-02-03T07:22:53;2.90;;;1.05;;
64375;SDS011;50700;55.416;12.952;2023-02-03T07:25:19;5.25;;;1.33;;
64375;SDS011;50700;55.416;12.952;2023-02-03T07:27:46;10.02;;;0.98;;
64375;SDS011;50700;55.416;12.952;2023-02-03T07:30:12;5.53;;;1.30;;
64375;SDS011;50700;55.416;12.952;2023-02-03T07:32:38;2.97;;;1.38;;
64375;SDS011;50700;55.416;12.952;2023-02-03T07:35:04;5.82;;;1.13;;
64375;SDS011;50700;55.416;12.952;2023-02-03T07:37:31;4.50;;;1.10;;
64375;SDS011;50700;55.416;12.952;2023-02-03T07:39:57;5.68;;;1.20;;
64375;SDS011;50700;55.416;12.952;2023-02-03T07:42:23;1.80;;;1.00;;
64375;SDS011;50700;55.416;12.952;2023-02-03T07:44:49;6.38;;;1.15;;
64375;SDS011;50700;55.416;12.952;2023-02-03T07:47:15;4.40;;;0.95;;
64375;SDS011;50700;55.416;12.952;2023-02-03T07:49:41;7.20;;;1.23;;
64375;SDS011;50700;55.416;12.952;2023-02-03T07:52:08;9.32;;;1.35;;
64375;SDS011;50700;55.416;12.952;2023-02-03T07:54:34;10.65;;;1.88;;
64375;SDS011;50700;55.416;12.952;2023-02-03T07:57:00;10.38;;;1.70;;
64375;SDS011;50700;55.416;12.952;2023-02-03T07:59:26;3.67;;;1.20;;
64375;SDS011;50700;55.416;12.952;2023-02-03T08:01:52;17.67;;;2.05;;
64375;SDS011;50700;55.416;12.952;2023-02-03T08:04:21;11.88;;;2.20;;
64375;SDS011;50700;55.416;12.952;2023-02-03T08:06:48;8.85;;;1.33;;
64375;SDS011;50700;55.416;12.952;2023-02-03T08:09:14;4.72;;;1.60;;
64375;SDS011;50700;55.416;12.952;2023-02-03T08:11:41;4.60;;;1.30;;
64375;SDS011;50700;55.416;12.952;2023-02-03T08:14:07;5.53;;;1.90;;
64375;SDS011;50700;55.416;12.952;2023-02-03T08:16:33;4.85;;;1.60;;
64375;SDS011;50700;55.416;12.952;2023-02-03T08:19:00;8.55;;;1.58;;
64375;SDS011;50700;55.416;12.952;2023-02-03T08:21:26;12.07;;;2.17;;
64375;SDS011;50700;55.416;12.952;2023-02-03T08:23:53;7.60;;;2.00;;
64375;SDS011;50700;55.416;12.952;2023-02-03T08:26:19;10.35;;;1.60;;
64375;SDS011;50700;55.416;12.952;2023-02-03T08:28:48;6.20;;;1.30;;
64375;SDS011;50700;55.416;12.952;2023-02-03T08:31:15;9.43;;;1.98;;
64375;SDS011;50700;55.416;12.952;2023-02-03T08:33:41;11.02;;;1.50;;
64375;SDS011;50700;55.416;12.952;2023-02-03T08:36:08;11.43;;;2.05;;
64375;SDS011;50700;55.416;12.952;2023-02-03T08:38:35;5.80;;;1.60;;
64375;SDS011;50700;55.416;12.952;2023-02-03T08:41:06;16.63;;;3.13;;
64375;SDS011;50700;55.416;12.952;2023-02-03T08:43:33;6.13;;;1.45;;
64375;SDS011;50700;55.416;12.952;2023-02-03T08:46:07;15.32;;;1.92;;
64375;SDS011;50700;55.416;12.952;2023-02-03T08:48:34;6.20;;;1.77;;
64375;SDS011;50700;55.416;12.952;2023-02-03T08:51:00;21.40;;;2.65;;
64375;SDS011;50700;55.416;12.952;2023-02-03T08:53:26;12.25;;;2.40;;
64375;SDS011;50700;55.416;12.952;2023-02-03T08:55:52;9.00;;;1.77;;
64375;SDS011;50700;55.416;12.952;2023-02-03T08:58:20;17.20;;;2.42;;
64375;SDS011;50700;55.416;12.952;2023-02-03T09:00:46;12.60;;;2.60;;
64375;SDS011;50700;55.416;12.952;2023-02-03T09:03:13;19.92;;;3.65;;
64375;SDS011;50700;55.416;12.952;2023-02-03T09:05:39;22.42;;;3.00;;
64375;SDS011;50700;55.416;12.952;2023-02-03T09:08:06;19.38;;;3.30;;
64375;SDS011;50700;55.416;12.952;2023-02-03T09:10:32;16.48;;;3.05;;
64375;SDS011;50700;55.416;12.952;2023-02-03T09:12:58;15.98;;;3.00;;
64375;SDS011;50700;55.416;12.952;2023-02-03T09:15:24;17.20;;;2.50;;
64375;SDS011;50700;55.416;12.952;2023-02-03T09:17:51;12.23;;;3.40;;
64375;SDS011;50700;55.416;12.952;2023-02-03T09:20:19;32.20;;;4.80;;
64375;SDS011;50700;55.416;12.952;2023-02-03T09:22:45;19.38;;;2.97;;
64375;SDS011;50700;55.416;12.952;2023-02-03T09:25:11;22.75;;;4.13;;
64375;SDS011;50700;55.416;12.952;2023-02-03T09:27:38;22.42;;;4.05;;
64375;SDS011;50700;55.416;12.952;2023-02-03T09:30:04;27.90;;;4.20;;
64375;SDS011;50700;55.416;12.952;2023-02-03T09:32:30;26.25;;;4.68;;
64375;SDS011;50700;55.416;12.952;2023-02-03T09:34:58;29.67;;;5.10;;
64375;SDS011;50700;55.416;12.952;2023-02-03T09:37:24;30.95;;;4.22;;
64375;SDS011;50700;55.416;12.952;2023-02-03T09:39:50;22.15;;;4.63;;
64375;SDS011;50700;55.416;12.952;2023-02-03T09:42:22;22.48;;;3.88;;
64375;SDS011;50700;55.416;12.952;2023-02-03T09:47:22;20.83;;;3.13;;
64375;SDS011;50700;55.416;12.952;2023-02-03T09:49:52;34.08;;;5.28;;
64375;SDS011;50700;55.416;12.952;2023-02-03T09:52:22;25.05;;;3.75;;
64375;SDS011;50700;55.416;12.952;2023-02-03T09:57:39;37.38;;;5.43;;
64375;SDS011;50700;55.416;12.952;2023-02-03T10:00:29;38.53;;;4.88;;
64375;SDS011;50700;55.416;12.952;2023-02-03T10:02:55;32.28;;;4.60;;
64375;SDS011;50700;55.416;12.952;2023-02-03T10:08:12;38.95;;;5.88;;
64375;SDS011;50700;55.416;12.952;2023-02-03T10:18:44;25.90;;;4.47;;
64375;SDS011;50700;55.416;12.952;2023-02-03T10:21:30;25.58;;;4.75;;
64375;SDS011;50700;55.416;12.952;2023-02-03T10:23:57;28.52;;;5.00;;
64375;SDS011;50700;55.416;12.952;2023-02-03T10:26:27;40.35;;;5.28;;
64375;SDS011;50700;55.416;12.952;2023-02-03T10:28:54;34.50;;;4.57;;
64375;SDS011;50700;55.416;12.952;2023-02-03T10:31:22;34.58;;;5.18;;
64375;SDS011;50700;55.416;12.952;2023-02-03T10:33:58;33.95;;;4.80;;
64375;SDS011;50700;55.416;12.952;2023-02-03T10:36:41;29.08;;;4.82;;
64375;SDS011;50700;55.416;12.952;2023-02-03T10:41:40;17.70;;;4.32;;
64375;SDS011;50700;55.416;12.952;2023-02-03T10:44:06;21.40;;;2.97;;
64375;SDS011;50700;55.416;12.952;2023-02-03T10:46:35;29.90;;;4.85;;
64375;SDS011;50700;55.416;12.952;2023-02-03T10:49:02;33.17;;;4.70;;
64375;SDS011;50700;55.416;12.952;2023-02-03T10:51:31;27.50;;;4.75;;
64375;SDS011;50700;55.416;12.952;2023-02-03T10:53:59;21.00;;;4.25;;
64375;SDS011;50700;55.416;12.952;2023-02-03T10:56:27;23.23;;;5.45;;
64375;SDS011;50700;55.416;12.952;2023-02-03T10:58:55;28.00;;;5.70;;
64375;SDS011;50700;55.416;12.952;2023-02-03T11:01:37;30.92;;;5.07;;
64375;SDS011;50700;55.416;12.952;2023-02-03T11:04:05;26.33;;;4.45;;
64375;SDS011;50700;55.416;12.952;2023-02-03T11:06:34;23.17;;;4.45;;
64375;SDS011;50700;55.416;12.952;2023-02-03T11:09:00;18.83;;;4.57;;
64375;SDS011;50700;55.416;12.952;2023-02-03T11:11:27;22.30;;;4.60;;
64375;SDS011;50700;55.416;12.952;2023-02-03T11:16:29;22.88;;;4.03;;
64375;SDS011;50700;55.416;12.952;2023-02-03T11:19:00;39.28;;;5.80;;
64375;SDS011;50700;55.416;12.952;2023-02-03T11:24:07;20.20;;;3.25;;
64375;SDS011;50700;55.416;12.952;2023-02-03T11:26:42;25.67;;;3.78;;
64375;SDS011;50700;55.416;12.952;2023-02-03T11:29:25;23.75;;;3.55;;
64375;SDS011;50700;55.416;12.952;2023-02-03T11:31:56;24.52;;;3.53;;
64375;SDS011;50700;55.416;12.952;2023-02-03T11:34:23;19.52;;;3.17;;
64375;SDS011;50700;55.416;12.952;2023-02-03T11:36:50;22.67;;;3.95;;
64375;SDS011;50700;55.416;12.952;2023-02-03T11:39:27;18.00;;;3.03;;
64375;SDS011;50700;55.416;12.952;2023-02-03T11:41:54;16.00;;;3.50;;
64375;SDS011;50700;55.416;12.952;2023-02-03T11:44:24;22.85;;;3.22;;
64375;SDS011;50700;55.416;12.952;2023-02-03T11:46:58;24.02;;;3.40;;
64375;SDS011;50700;55.416;12.952;2023-02-03T11:51:59;20.23;;;3.45;;
64375;SDS011;50700;55.416;12.952;2023-02-03T12:02:26;21.50;;;3.88;;
64375;SDS011;50700;55.416;12.952;2023-02-03T12:05:14;24.25;;;3.33;;
64375;SDS011;50700;55.416;12.952;2023-02-03T12:23:52;9.88;;;1.63;;
64375;SDS011;50700;55.416;12.952;2023-02-03T12:26:20;4.93;;;1.77;;
64375;SDS011;50700;55.416;12.952;2023-02-03T12:29:01;7.95;;;1.13;;
64375;SDS011;50700;55.416;12.952;2023-02-03T12:31:30;3.35;;;0.90;;
64375;SDS011;50700;55.416;12.952;2023-02-03T12:34:08;8.70;;;1.33;;
64375;SDS011;50700;55.416;12.952;2023-02-03T12:36:38;10.32;;;1.35;;
64375;SDS011;50700;55.416;12.952;2023-02-03T12:39:27;7.80;;;1.17;;
64375;SDS011;50700;55.416;12.952;2023-02-03T12:42:14;9.98;;;1.30;;
64375;SDS011;50700;55.416;12.952;2023-02-03T12:45:00;1.63;;;1.20;;
64375;SDS011;50700;55.416;12.952;2023-02-03T12:47:33;10.02;;;1.40;;
64375;SDS011;50700;55.416;12.952;2023-02-03T12:57:51;10.05;;;1.40;;
64375;SDS011;50700;55.416;12.952;2023-02-03T13:03:31;8.45;;;1.52;;
64375;SDS011;50700;55.416;12.952;2023-02-03T13:08:20;9.23;;;1.65;;
64375;SDS011;50700;55.416;12.952;2023-02-03T13:10:52;5.75;;;0.85;;
64375;SDS011;50700;55.416;12.952;2023-02-03T13:13:23;4.32;;;1.23;;
64375;SDS011;50700;55.416;12.952;2023-02-03T13:15:52;6.43;;;1.23;;
64375;SDS011;50700;55.416;12.952;2023-02-03T13:20:51;9.13;;;1.83;;
64375;SDS011;50700;55.416;12.952;2023-02-03T13:23:18;15.50;;;1.77;;
64375;SDS011;50700;55.416;12.952;2023-02-03T13:38:49;7.55;;;1.25;;
64375;SDS011;50700;55.416;12.952;2023-02-03T13:43:52;8.65;;;1.30;;
64375;SDS011;50700;55.416;12.952;2023-02-03T13:46:30;6.85;;;1.40;;
64375;SDS011;50700;55.416;12.952;2023-02-03T13:48:58;3.75;;;1.23;;
64375;SDS011;50700;55.416;12.952;2023-02-03T13:51:35;1.17;;;0.65;;
64375;SDS011;50700;55.416;12.952;2023-02-03T13:56:28;1.58;;;0.95;;
64375;SDS011;50700;55.416;12.952;2023-02-03T13:59:06;2.95;;;1.00;;
64375;SDS011;50700;55.416;12.952;2023-02-03T14:01:52;4.30;;;0.70;;
64375;SDS011;50700;55.416;12.952;2023-02-03T14:04:49;1.33;;;0.82;;
64375;SDS011;50700;55.416;12.952;2023-02-03T14:10:19;2.22;;;0.88;;
64375;SDS011;50700;55.416;12.952;2023-02-03T14:17:58;1.00;;;0.90;;
64375;SDS011;50700;55.416;12.952;2023-02-03T14:22:55;2.38;;;0.63;;
64375;SDS011;50700;55.416;12.952;2023-02-03T14:25:22;8.25;;;1.15;;
64375;SDS011;50700;55.416;12.952;2023-02-03T14:27:59;3.00;;;0.95;;
64375;SDS011;50700;55.416;12.952;2023-02-03T14:30:25;3.40;;;1.10;;
64375;SDS011;50700;55.416;12.952;2023-02-03T14:32:55;4.45;;;0.80;;
64375;SDS011;50700;55.416;12.952;2023-02-03T14:35:30;4.05;;;0.77;;
64375;SDS011;50700;55.416;12.952;2023-02-03T14:37:59;6.18;;;1.27;;
64375;SDS011;50700;55.416;12.952;2023-02-03T14:40:33;5.38;;;0.93;;
64375;SDS011;50700;55.416;12.952;2023-02-03T14:45:35;1.95;;;0.82;;
64375;SDS011;50700;55.416;12.952;2023-02-03T14:48:27;4.50;;;1.00;;
64375;SDS011;50700;55.416;12.952;2023-02-03T14:58:52;2.10;;;0.60;;
64375;SDS011;50700;55.416;12.952;2023-02-03T15:01:25;7.40;;;1.02;;
64375;SDS011;50700;55.416;12.952;2023-02-03T15:06:50;1.17;;;0.70;;
64375;SDS011;50700;55.416;12.952;2023-02-03T15:09:33;2.55;;;1.08;;
64375;SDS011;50700;55.416;12.952;2023-02-03T15:12:22;1.90;;;0.75;;
64375;SDS011;50700;55.416;12.952;2023-02-03T15:14:50;1.25;;;0.60;;
64375;SDS011;50700;55.416;12.952;2023-02-03T15:17:24;3.13;;;0.50;;
64375;SDS011;50700;55.416;12.952;2023-02-03T15:19:51;2.63;;;1.00;;
64375;SDS011;50700;55.416;12.952;2023-02-03T15:22:18;0.82;;;0.55;;
64375;SDS011;50700;55.416;12.952;2023-02-03T15:24:44;1.48;;;0.50;;
64375;SDS011;50700;55.416;12.952;2023-02-03T15:27:24;2.90;;;0.68;;
64375;SDS011;50700;55.416;12.952;2023-02-03T15:29:51;2.22;;;0.63;;
64375;SDS011;50700;55.416;12.952;2023-02-03T15:32:22;3.42;;;0.80;;
64375;SDS011;50700;55.416;12.952;2023-02-03T15:34:50;0.85;;;0.60;;
64375;SDS011;50700;55.416;12.952;2023-02-03T15:40:02;1.92;;;0.50;;
64375;SDS011;50700;55.416;12.952;2023-02-03T15:45:35;2.25;;;0.80;;
64375;SDS011;50700;55.416;12.952;2023-02-03T15:48:08;1.05;;;0.90;;
64375;SDS011;50700;55.416;12.952;2023-02-03T15:50:42;0.95;;;0.70;;
64375;SDS011;50700;55.416;12.952;2023-02-03T15:53:31;0.93;;;0.93;;
64375;SDS011;50700;55.416;12.952;2023-02-03T15:56:00;0.70;;;0.70;;
64375;SDS011;50700;55.416;12.952;2023-02-03T15:58:29;0.82;;;0.77;;
64375;SDS011;50700;55.416;12.952;2023-02-03T16:00:58;2.55;;;0.80;;
64375;SDS011;50700;55.416;12.952;2023-02-03T16:03:33;0.80;;;0.70;;
64375;SDS011;50700;55.416;12.952;2023-02-03T16:06:07;1.02;;;0.85;;
64375;SDS011;50700;55.416;12.952;2023-02-03T16:08:37;6.15;;;1.58;;
64375;SDS011;50700;55.416;12.952;2023-02-03T16:11:21;2.50;;;1.33;;
64375;SDS011;50700;55.416;12.952;2023-02-03T16:13:48;2.88;;;1.08;;
64375;SDS011;50700;55.416;12.952;2023-02-03T16:16:16;1.70;;;1.13;;
64375;SDS011;50700;55.416;12.952;2023-02-03T16:18:54;1.52;;;1.10;;
64375;SDS011;50700;55.416;12.952;2023-02-03T16:21:24;3.80;;;1.25;;
64375;SDS011;50700;55.416;12.952;2023-02-03T16:23:52;1.95;;;1.00;;
64375;SDS011;50700;55.416;12.952;2023-02-03T16:26:18;4.43;;;1.80;;
64375;SDS011;50700;55.416;12.952;2023-02-03T16:31:47;2.38;;;1.30;;
64375;SDS011;50700;55.416;12.952;2023-02-03T16:34:33;3.45;;;1.35;;
64375;SDS011;50700;55.416;12.952;2023-02-03T16:37:25;1.02;;;0.90;;
64375;SDS011;50700;55.416;12.952;2023-02-03T16:40:11;1.02;;;1.02;;
64375;SDS011;50700;55.416;12.952;2023-02-03T16:42:56;1.80;;;1.20;;
64375;SDS011;50700;55.416;12.952;2023-02-03T16:45:41;3.58;;;1.20;;
64375;SDS011;50700;55.416;12.952;2023-02-03T16:48:26;2.47;;;1.60;;
64375;SDS011;50700;55.416;12.952;2023-02-03T16:51:12;3.83;;;1.88;;
64375;SDS011;50700;55.416;12.952;2023-02-03T16:53:40;1.58;;;1.10;;
64375;SDS011;50700;55.416;12.952;2023-02-03T16:56:08;1.05;;;0.90;;
64375;SDS011;50700;55.416;12.952;2023-02-03T16:58:34;3.08;;;1.20;;